Terminal Aerodrome Forecast
Issued by NWS Memphis, TN

Home | Current Version | Previous Version | Text Only | Print | Product List | Glossary On
Versions: 1 2 3 4 5 6 7 8 9 10 11 12
000
FTUS44 KMEG 211726
TAFMKL
TAF
KMKL 211726Z 2118/2218 11008KT P6SM SCT025 OVC060
     FM220000 15005KT P6SM OVC070
     FM221500 16010KT P6SM OVC060=

USA.gov is the U.S. government's official web portal to all federal, state and local government web resources and services.